createdAt,value
2022-12-04T00:01:26.131Z,100265.28
2022-12-04T00:03:54.206Z,100264.47
2022-12-04T00:06:21.708Z,100262.81
2022-12-04T00:08:49.049Z,100260.06
2022-12-04T00:11:17.912Z,100254.19
2022-12-04T00:13:45.183Z,100259.44
2022-12-04T00:16:13.712Z,100253.28
2022-12-04T00:18:41.427Z,100253.81
2022-12-04T00:21:09.656Z,100254.66
2022-12-04T00:23:37.541Z,100257.56
2022-12-04T00:26:06.349Z,100267.03
2022-12-04T00:28:34.121Z,100267.84
2022-12-04T00:31:04.835Z,100272.09
2022-12-04T00:33:32.409Z,100273.47
2022-12-04T00:36:00.181Z,100274.94
2022-12-04T00:38:27.488Z,100267.19
2022-12-04T00:40:55.242Z,100270.63
2022-12-04T00:43:23.218Z,100266.75
2022-12-04T00:45:50.674Z,100261.78
2022-12-04T00:48:18.191Z,100260.91
2022-12-04T00:50:45.445Z,100262.03
2022-12-04T00:53:12.802Z,100262.09
2022-12-04T00:55:40.559Z,100264.72
2022-12-04T00:58:07.987Z,100267.06
2022-12-04T01:00:35.781Z,100267.16
2022-12-04T01:03:03.405Z,100266.91
2022-12-04T01:05:30.739Z,100268.16
2022-12-04T01:07:58.014Z,100257.44
2022-12-04T01:10:25.588Z,100269.16
2022-12-04T01:12:55.572Z,100250.84
2022-12-04T01:15:22.814Z,100258.03
2022-12-04T01:17:50.297Z,100256.34
2022-12-04T01:20:17.667Z,100261.88
2022-12-04T01:22:44.864Z,100256.78
2022-12-04T01:25:12.362Z,100257.72
2022-12-04T01:27:39.652Z,100252.00
2022-12-04T01:30:07.235Z,100263.00
2022-12-04T01:32:34.694Z,100258.63
2022-12-04T01:35:01.962Z,100263.56
2022-12-04T01:37:30.534Z,100252.75
2022-12-04T01:39:58.496Z,100258.47
2022-12-04T01:42:25.925Z,100248.75
2022-12-04T01:45:12.102Z,100257.13
2022-12-04T01:47:39.577Z,100256.94
2022-12-04T01:50:07.049Z,100248.75
2022-12-04T01:52:34.332Z,100254.16
2022-12-04T01:55:01.842Z,100253.91
2022-12-04T01:57:29.856Z,100248.44
2022-12-04T02:00:08.956Z,100250.66
2022-12-04T02:02:37.533Z,100245.88
2022-12-04T02:05:05.812Z,100235.88
2022-12-04T02:07:33.104Z,100236.09
2022-12-04T02:10:06.284Z,100226.53
2022-12-04T02:12:36.833Z,100236.13
2022-12-04T02:15:10.485Z,100232.72
2022-12-04T02:17:46.875Z,100231.81
2022-12-04T02:20:17.014Z,100225.75
2022-12-04T02:22:47.095Z,100238.72
2022-12-04T02:25:20.275Z,100231.16
2022-12-04T02:28:04.051Z,100236.63
2022-12-04T02:30:31.995Z,100231.41
2022-12-04T02:33:03.975Z,100233.31
2022-12-04T02:35:33.524Z,100227.41
2022-12-04T02:38:27.249Z,100226.34
2022-12-04T02:40:56.869Z,100230.69
2022-12-04T02:43:34.242Z,100237.09
2022-12-04T02:46:03.901Z,100241.97
2022-12-04T02:48:32.063Z,100238.75
2022-12-04T02:50:59.701Z,100241.53
2022-12-04T02:53:28.807Z,100234.75
2022-12-04T02:55:57.843Z,100227.47
2022-12-04T02:58:26.386Z,100231.62
2022-12-04T03:00:53.897Z,100220.47
2022-12-04T03:03:22.102Z,100221.75
2022-12-04T03:05:49.330Z,100225.47
2022-12-04T03:08:17.773Z,100223.19
2022-12-04T03:10:50.032Z,100217.31
2022-12-04T03:13:19.171Z,100222.47
2022-12-04T03:15:50.842Z,100225.75
2022-12-04T03:18:19.577Z,100235.53
2022-12-04T03:20:47.563Z,100234.75
2022-12-04T03:23:15.925Z,100225.47
2022-12-04T03:25:46.028Z,100229.56
2022-12-04T03:28:22.759Z,100232.63
2022-12-04T03:30:51.762Z,100225.69
2022-12-04T03:33:20.412Z,100224.03
2022-12-04T03:35:49.015Z,100219.31
2022-12-04T03:38:25.688Z,100222.78
2022-12-04T03:41:31.545Z,100217.66
2022-12-04T03:44:06.899Z,100229.16
2022-12-04T03:46:46.103Z,100229.50
2022-12-04T03:49:21.611Z,100231.75
2022-12-04T03:51:48.889Z,100240.28
2022-12-04T03:54:17.753Z,100232.22
2022-12-04T03:56:47.305Z,100231.31
2022-12-04T03:59:16.205Z,100239.69
2022-12-04T04:01:45.249Z,100238.41
2022-12-04T04:04:14.381Z,100234.38
2022-12-04T04:06:44.573Z,100225.84
2022-12-04T04:09:16.075Z,100222.47
2022-12-04T04:11:45.927Z,100223.81
2022-12-04T04:14:37.903Z,100219.59
2022-12-04T04:17:25.638Z,100218.16
2022-12-04T04:20:12.906Z,100227.78
2022-12-04T04:22:59.278Z,100225.38
2022-12-04T04:25:26.990Z,100232.38
2022-12-04T04:27:58.214Z,100237.41
2022-12-04T04:30:25.565Z,100238.84
2022-12-04T04:33:00.226Z,100239.84
2022-12-04T04:35:49.024Z,100246.28
2022-12-04T04:38:25.266Z,100253.41
2022-12-04T04:40:57.200Z,100252.09
2022-12-04T04:43:29.585Z,100241.06
2022-12-04T04:46:08.330Z,100238.38
2022-12-04T04:48:42.868Z,100233.16
2022-12-04T04:51:10.398Z,100234.50
2022-12-04T04:53:39.459Z,100245.25
2022-12-04T04:56:06.921Z,100232.53
2022-12-04T04:58:34.958Z,100229.38
2022-12-04T05:01:09.004Z,100241.34
2022-12-04T05:03:36.584Z,100252.72
2022-12-04T05:06:04.026Z,100250.47
2022-12-04T05:08:31.204Z,100248.59
2022-12-04T05:10:58.732Z,100248.75
2022-12-04T05:13:27.083Z,100242.06
2022-12-04T05:16:04.702Z,100245.75
2022-12-04T05:18:32.520Z,100247.09
2022-12-04T05:20:59.708Z,100236.53
2022-12-04T05:23:26.987Z,100238.38
2022-12-04T05:26:01.205Z,100238.03
2022-12-04T05:28:28.761Z,100234.22
2022-12-04T05:30:56.779Z,100238.28
2022-12-04T05:33:24.224Z,100240.94
2022-12-04T05:35:58.345Z,100235.97
2022-12-04T05:38:25.915Z,100239.59
2022-12-04T05:40:53.189Z,100238.03
2022-12-04T05:43:20.387Z,100233.16
2022-12-04T05:45:47.860Z,100231.09
2022-12-04T05:48:15.457Z,100238.91
2022-12-04T05:50:42.720Z,100233.81
2022-12-04T05:53:10.227Z,100237.78
2022-12-04T05:55:37.429Z,100243.63
2022-12-04T05:58:04.665Z,100238.75
2022-12-04T06:00:32.177Z,100244.25
2022-12-04T06:02:59.812Z,100243.00
2022-12-04T06:05:27.113Z,100245.31
2022-12-04T06:07:54.461Z,100244.72
2022-12-04T06:10:21.972Z,100244.72
2022-12-04T06:12:49.192Z,100236.03
2022-12-04T06:15:16.475Z,100249.16
2022-12-04T06:17:43.964Z,100253.63
2022-12-04T06:20:12.088Z,100258.94
2022-12-04T06:22:39.496Z,100254.25
2022-12-04T06:25:07.231Z,100253.66
2022-12-04T06:27:34.523Z,100253.34
2022-12-04T06:30:01.805Z,100250.37
2022-12-04T06:32:30.172Z,100257.81
2022-12-04T06:34:57.384Z,100258.38
2022-12-04T06:37:25.015Z,100252.56
2022-12-04T06:39:52.806Z,100257.28
2022-12-04T06:42:20.230Z,100251.44
2022-12-04T06:44:47.453Z,100247.75
2022-12-04T06:47:14.893Z,100244.66
2022-12-04T06:49:42.359Z,100240.13
2022-12-04T06:52:09.571Z,100235.94
2022-12-04T06:54:37.236Z,100244.28
2022-12-04T06:57:04.416Z,100237.50
2022-12-04T06:59:32.668Z,100237.34
2022-12-04T07:02:00.297Z,100228.13
2022-12-04T07:04:27.574Z,100229.78
2022-12-04T07:06:54.808Z,100227.34
2022-12-04T07:09:23.199Z,100230.56
2022-12-04T07:11:50.450Z,100237.41
2022-12-04T07:14:17.669Z,100235.44
2022-12-04T07:16:45.248Z,100240.87
2022-12-04T07:19:13.711Z,100231.97
2022-12-04T07:21:41.377Z,100228.75
2022-12-04T07:24:09.207Z,100246.12
2022-12-04T07:26:36.503Z,100241.81
2022-12-04T07:29:03.774Z,100248.97
2022-12-04T07:31:31.340Z,100238.38
2022-12-04T07:33:58.926Z,100239.66
2022-12-04T07:36:26.525Z,100236.03
2022-12-04T07:38:56.983Z,100243.78
2022-12-04T07:41:24.312Z,100251.66
2022-12-04T07:43:51.615Z,100236.75
2022-12-04T07:46:20.891Z,100243.56
2022-12-04T07:48:48.128Z,100245.00
2022-12-04T07:51:21.888Z,100243.84
2022-12-04T07:53:50.302Z,100251.31
2022-12-04T07:56:17.708Z,100248.13
2022-12-04T07:58:45.166Z,100251.09
2022-12-04T08:01:12.785Z,100245.75
2022-12-04T08:03:46.804Z,100238.72
2022-12-04T08:06:14.887Z,100242.56
2022-12-04T08:08:42.403Z,100245.31
2022-12-04T08:11:10.547Z,100244.50
2022-12-04T08:13:37.830Z,100253.41
2022-12-04T08:16:05.775Z,100252.69
2022-12-04T08:18:33.206Z,100234.69
2022-12-04T08:21:04.555Z,100243.84
2022-12-04T08:23:32.048Z,100240.16
2022-12-04T08:26:00.429Z,100237.72
2022-12-04T08:28:27.736Z,100248.06
2022-12-04T08:30:55.325Z,100242.59
2022-12-04T08:33:22.783Z,100248.25
2022-12-04T08:35:50.241Z,100248.09
2022-12-04T08:38:18.069Z,100242.03
2022-12-04T08:40:45.621Z,100242.50
2022-12-04T08:43:13.181Z,100236.69
2022-12-04T08:45:40.820Z,100242.72
2022-12-04T08:48:08.093Z,100247.37
2022-12-04T08:50:35.498Z,100243.28
2022-12-04T08:53:03.052Z,100241.22
2022-12-04T08:55:30.294Z,100251.00
2022-12-04T08:57:57.578Z,100247.56
2022-12-04T09:00:27.276Z,100245.62
2022-12-04T09:02:54.565Z,100246.44
2022-12-04T09:05:21.769Z,100237.78
2022-12-04T09:07:49.479Z,100236.22
2022-12-04T09:10:16.880Z,100236.69
2022-12-04T09:12:44.104Z,100239.63
2022-12-04T09:15:11.670Z,100237.84
2022-12-04T09:17:38.933Z,100229.06
2022-12-04T09:20:07.200Z,100229.63
2022-12-04T09:22:57.803Z,100223.63
2022-12-04T09:25:23.979Z,100226.66
2022-12-04T09:27:51.626Z,100226.84
2022-12-04T09:30:18.983Z,100232.69
2022-12-04T09:32:46.264Z,100222.31
2022-12-04T09:35:13.903Z,100225.16
2022-12-04T09:37:41.355Z,100222.09
2022-12-04T09:40:27.532Z,100220.28
2022-12-04T09:43:18.706Z,100209.91
2022-12-04T09:45:47.036Z,100209.00
2022-12-04T09:48:14.626Z,100202.63
2022-12-04T09:50:42.711Z,100190.09
2022-12-04T09:53:17.385Z,100189.87
2022-12-04T09:55:45.683Z,100180.19
2022-12-04T09:58:14.670Z,100181.62
2022-12-04T10:00:42.928Z,100182.78
2022-12-04T10:03:13.656Z,100181.50
2022-12-04T10:05:59.700Z,100177.62
2022-12-04T10:08:37.378Z,100179.00
2022-12-04T10:11:27.680Z,100181.00
2022-12-04T10:14:04.461Z,100174.84
2022-12-04T10:16:50.643Z,100171.88
2022-12-04T10:19:36.808Z,100171.75
2022-12-04T10:22:09.527Z,100162.72
2022-12-04T10:24:50.096Z,100164.47
2022-12-04T10:27:22.447Z,100155.97
2022-12-04T10:29:56.264Z,100153.69
2022-12-04T10:32:27.664Z,100154.31
2022-12-04T10:34:56.373Z,100149.56
2022-12-04T10:37:23.689Z,100146.69
2022-12-04T10:39:51.091Z,100146.91
2022-12-04T10:42:25.309Z,100138.19
2022-12-04T10:44:52.976Z,100125.56
2022-12-04T10:47:22.218Z,100135.63
2022-12-04T10:49:49.529Z,100128.69
2022-12-04T10:52:16.919Z,100131.28
2022-12-04T10:54:52.122Z,100114.84
2022-12-04T10:57:19.440Z,100111.44
2022-12-04T10:59:55.431Z,100110.66
2022-12-04T11:02:30.404Z,100110.38
2022-12-04T11:04:59.385Z,100112.00
2022-12-04T11:07:27.404Z,100101.94
2022-12-04T11:10:04.640Z,100094.72
2022-12-04T11:12:32.437Z,100088.16
2022-12-04T11:15:00.433Z,100083.69
2022-12-04T11:17:27.690Z,100073.12
2022-12-04T11:20:21.683Z,100069.69
2022-12-04T11:22:56.966Z,100063.63
2022-12-04T11:25:28.271Z,100077.91
2022-12-04T11:27:56.120Z,100081.56
2022-12-04T11:30:30.091Z,100075.97
2022-12-04T11:32:57.630Z,100078.53
2022-12-04T11:35:25.433Z,100070.06
2022-12-04T11:38:12.568Z,100073.78
2022-12-04T11:40:40.399Z,100076.41
2022-12-04T11:43:10.756Z,100073.31
2022-12-04T11:45:38.028Z,100064.13
2022-12-04T11:48:15.901Z,100060.00
2022-12-04T11:50:49.657Z,100055.31
2022-12-04T11:53:27.252Z,100047.37
2022-12-04T11:56:14.131Z,100050.44
2022-12-04T11:59:00.854Z,100055.97
2022-12-04T12:01:37.142Z,100053.25
2022-12-04T12:04:07.574Z,100047.94
2022-12-04T12:06:38.107Z,100048.25
2022-12-04T12:09:05.551Z,100052.44
2022-12-04T12:11:37.700Z,100055.78
2022-12-04T12:14:23.860Z,100061.25
2022-12-04T12:17:06.475Z,100063.25
2022-12-04T12:19:45.862Z,100061.75
2022-12-04T12:22:13.436Z,100076.44
2022-12-04T12:25:03.411Z,100068.34
2022-12-04T12:27:30.954Z,100069.53
2022-12-04T12:30:01.290Z,100069.66
2022-12-04T12:32:31.660Z,100066.06
2022-12-04T12:34:59.444Z,100072.41
2022-12-04T12:37:28.879Z,100070.94
2022-12-04T12:40:25.655Z,100062.25
2022-12-04T12:42:58.703Z,100061.44
2022-12-04T12:45:46.850Z,100057.81
2022-12-04T12:48:22.547Z,100054.37
2022-12-04T12:51:08.854Z,100050.41
2022-12-04T12:53:40.095Z,100054.59
2022-12-04T12:56:10.671Z,100060.97
2022-12-04T12:58:44.503Z,100068.19
2022-12-04T13:01:22.749Z,100065.28
2022-12-04T13:04:19.782Z,100064.25
2022-12-04T13:06:47.327Z,100066.25
2022-12-04T13:09:20.628Z,100047.41
2022-12-04T13:11:49.034Z,100055.13
2022-12-04T13:14:16.612Z,100047.81
2022-12-04T13:16:46.993Z,100058.19
2022-12-04T13:19:18.705Z,100051.22
2022-12-04T13:21:47.722Z,100072.56
2022-12-04T13:24:33.707Z,100069.00
2022-12-04T13:27:20.015Z,100073.59
2022-12-04T13:29:56.488Z,100074.34
2022-12-04T13:32:33.542Z,100078.34
2022-12-04T13:35:00.737Z,100071.06
2022-12-04T13:37:28.343Z,100081.09
2022-12-04T13:40:05.007Z,100085.91
2022-12-04T13:42:32.623Z,100073.59
2022-12-04T13:45:00.628Z,100092.31
2022-12-04T13:47:32.891Z,100076.78
2022-12-04T13:50:18.697Z,100085.97
2022-12-04T13:52:47.379Z,100079.53
2022-12-04T13:55:24.246Z,100075.03
2022-12-04T13:57:59.078Z,100082.38
2022-12-04T14:00:29.349Z,100081.56
2022-12-04T14:03:01.072Z,100088.41
2022-12-04T14:05:29.876Z,100088.72
2022-12-04T14:08:05.708Z,100093.84
2022-12-04T14:10:35.882Z,100094.97
2022-12-04T14:13:08.096Z,100098.72
2022-12-04T14:15:36.178Z,100109.16
2022-12-04T14:18:16.590Z,100110.44
2022-12-04T14:20:44.660Z,100102.94
2022-12-04T14:23:15.238Z,100098.53
2022-12-04T14:25:42.663Z,100104.13
2022-12-04T14:28:14.111Z,100096.59
2022-12-04T14:30:41.882Z,100102.59
2022-12-04T14:33:12.362Z,100094.37
2022-12-04T14:35:47.971Z,100089.78
2022-12-04T14:38:17.003Z,100090.75
2022-12-04T14:40:45.469Z,100090.47
2022-12-04T14:43:22.888Z,100098.09
2022-12-04T14:45:51.411Z,100105.34
2022-12-04T14:48:45.552Z,100095.06
2022-12-04T14:51:22.397Z,100099.56
2022-12-04T14:54:08.416Z,100093.66
2022-12-04T14:56:54.830Z,100094.16
2022-12-04T14:59:22.703Z,100100.34
2022-12-04T15:01:50.868Z,100106.72
2022-12-04T15:04:18.352Z,100100.81
2022-12-04T15:06:46.594Z,100103.59
2022-12-04T15:09:35.630Z,100104.38
2022-12-04T15:12:31.076Z,100101.63
2022-12-04T15:14:59.235Z,100106.47
2022-12-04T15:17:26.539Z,100103.41
2022-12-04T15:19:53.804Z,100107.47
2022-12-04T15:22:22.814Z,100100.09
2022-12-04T15:24:50.755Z,100105.88
2022-12-04T15:27:18.844Z,100104.06
2022-12-04T15:29:49.133Z,100103.22
2022-12-04T15:32:16.759Z,100105.16
2022-12-04T15:34:54.295Z,100109.09
2022-12-04T15:37:29.343Z,100106.44
2022-12-04T15:39:57.271Z,100098.59
2022-12-04T15:42:29.367Z,100107.25
2022-12-04T15:45:03.327Z,100102.78
2022-12-04T15:47:33.172Z,100096.34
2022-12-04T15:50:15.589Z,100096.78
2022-12-04T15:53:01.524Z,100093.47
2022-12-04T15:55:31.352Z,100096.44
2022-12-04T15:58:00.926Z,100102.34
2022-12-04T16:00:32.607Z,100105.25
2022-12-04T16:03:00.322Z,100098.22
2022-12-04T16:05:29.592Z,100105.22
2022-12-04T16:07:58.004Z,100101.06
2022-12-04T16:10:28.279Z,100108.84
2022-12-04T16:12:56.612Z,100099.38
2022-12-04T16:15:24.410Z,100110.28
2022-12-04T16:17:51.973Z,100107.72
2022-12-04T16:20:20.171Z,100109.78
2022-12-04T16:22:47.906Z,100103.94
2022-12-04T16:25:15.491Z,100100.03
2022-12-04T16:27:42.893Z,100109.59
2022-12-04T16:30:10.312Z,100098.72
2022-12-04T16:32:38.110Z,100108.13
2022-12-04T16:35:06.481Z,100105.41
2022-12-04T16:37:33.921Z,100103.44
2022-12-04T16:40:06.400Z,100106.44
2022-12-04T16:42:34.999Z,100107.59
2022-12-04T16:45:02.553Z,100111.84
2022-12-04T16:47:29.959Z,100107.25
2022-12-04T16:49:57.426Z,100104.44
2022-12-04T16:52:25.125Z,100117.81
2022-12-04T16:54:52.588Z,100108.09
2022-12-04T16:57:19.932Z,100109.94
2022-12-04T16:59:48.021Z,100115.09
2022-12-04T17:02:16.340Z,100113.38
2022-12-04T17:04:43.904Z,100114.75
2022-12-04T17:07:11.406Z,100118.50
2022-12-04T17:09:38.746Z,100116.59
2022-12-04T17:12:06.184Z,100118.63
2022-12-04T17:14:33.738Z,100112.16
2022-12-04T17:17:02.256Z,100114.00
2022-12-04T17:19:29.681Z,100109.69
2022-12-04T17:21:58.340Z,100116.19
2022-12-04T17:24:25.531Z,100114.22
2022-12-04T17:26:52.861Z,100114.28
2022-12-04T17:29:21.775Z,100110.16
2022-12-04T17:31:49.150Z,100111.03
2022-12-04T17:34:16.455Z,100118.78
2022-12-04T17:36:44.089Z,100118.06
2022-12-04T17:39:13.482Z,100115.41
2022-12-04T17:41:40.902Z,100123.13
2022-12-04T17:44:08.637Z,100120.59
2022-12-04T17:46:36.180Z,100121.56
2022-12-04T17:49:07.073Z,100121.66
2022-12-04T17:51:35.919Z,100124.13
2022-12-04T17:54:03.666Z,100119.88
2022-12-04T17:56:31.118Z,100118.47
2022-12-04T17:58:58.602Z,100116.03
2022-12-04T18:01:27.795Z,100118.50
2022-12-04T18:04:01.880Z,100127.38
2022-12-04T18:06:30.342Z,100128.56
2022-12-04T18:08:58.054Z,100120.69
2022-12-04T18:11:26.246Z,100122.97
2022-12-04T18:13:54.203Z,100123.03
2022-12-04T18:16:22.212Z,100128.34
2022-12-04T18:18:50.865Z,100125.25
2022-12-04T18:21:18.194Z,100135.66
2022-12-04T18:23:46.194Z,100132.56
2022-12-04T18:26:14.437Z,100141.63
2022-12-04T18:28:42.354Z,100140.53
2022-12-04T18:31:10.297Z,100144.88
2022-12-04T18:33:38.621Z,100139.81
2022-12-04T18:36:06.356Z,100147.06
2022-12-04T18:38:33.870Z,100139.34
2022-12-04T18:41:02.849Z,100142.75
2022-12-04T18:43:32.987Z,100135.34
2022-12-04T18:46:06.858Z,100133.47
2022-12-04T18:48:35.254Z,100137.50
2022-12-04T18:51:13.104Z,100128.34
2022-12-04T18:53:40.490Z,100133.97
2022-12-04T18:56:08.019Z,100133.16
2022-12-04T18:58:35.344Z,100132.88
2022-12-04T19:01:06.902Z,100139.78
2022-12-04T19:03:34.893Z,100134.44
2022-12-04T19:06:02.721Z,100136.53
2022-12-04T19:08:33.710Z,100126.97
2022-12-04T19:11:10.373Z,100143.81
2022-12-04T19:13:37.769Z,100137.28
2022-12-04T19:16:05.672Z,100151.63
2022-12-04T19:18:33.948Z,100148.50
2022-12-04T19:21:01.387Z,100142.28
2022-12-04T19:23:29.060Z,100139.69
2022-12-04T19:25:56.661Z,100141.13
2022-12-04T19:28:24.125Z,100142.72
2022-12-04T19:30:51.710Z,100146.19
2022-12-04T19:33:21.203Z,100145.72
2022-12-04T19:35:59.002Z,100153.16
2022-12-04T19:38:27.037Z,100162.03
2022-12-04T19:41:09.447Z,100153.19
2022-12-04T19:43:41.185Z,100151.81
2022-12-04T19:46:09.309Z,100145.31
2022-12-04T19:48:40.019Z,100151.59
2022-12-04T19:51:15.032Z,100145.03
2022-12-04T19:53:43.602Z,100149.31
2022-12-04T19:56:15.486Z,100146.25
2022-12-04T19:58:43.186Z,100152.75
2022-12-04T20:01:11.461Z,100156.75
2022-12-04T20:03:39.343Z,100165.81
2022-12-04T20:06:12.074Z,100158.87
2022-12-04T20:08:39.913Z,100153.13
2022-12-04T20:11:08.510Z,100161.94
2022-12-04T20:13:36.425Z,100161.50
2022-12-04T20:16:04.582Z,100160.50
2022-12-04T20:18:32.085Z,100161.38
2022-12-04T20:21:00.657Z,100167.16
2022-12-04T20:23:28.673Z,100168.22
2022-12-04T20:25:55.992Z,100174.75
2022-12-04T20:28:23.205Z,100169.19
2022-12-04T20:30:50.869Z,100179.84
2022-12-04T20:33:18.146Z,100190.63
2022-12-04T20:35:45.385Z,100179.91
2022-12-04T20:38:14.230Z,100186.34
2022-12-04T20:40:41.498Z,100186.75
2022-12-04T20:43:08.713Z,100185.34
2022-12-04T20:45:36.401Z,100183.44
2022-12-04T20:48:04.394Z,100188.88
2022-12-04T20:50:32.128Z,100187.00
2022-12-04T20:52:59.840Z,100188.28
2022-12-04T20:55:27.083Z,100183.37
2022-12-04T20:57:55.176Z,100185.75
2022-12-04T21:00:23.035Z,100175.06
2022-12-04T21:02:50.407Z,100181.72
2022-12-04T21:05:17.740Z,100182.56
2022-12-04T21:07:45.311Z,100189.97
2022-12-04T21:10:12.588Z,100184.97
2022-12-04T21:12:58.875Z,100188.72
2022-12-04T21:15:45.340Z,100187.13
2022-12-04T21:18:12.799Z,100179.06
2022-12-04T21:20:40.281Z,100170.94
2022-12-04T21:23:07.508Z,100176.19
2022-12-04T21:25:34.802Z,100180.78
2022-12-04T21:28:02.325Z,100173.53
2022-12-04T21:30:29.519Z,100177.59
2022-12-04T21:32:56.805Z,100184.91
2022-12-04T21:35:24.347Z,100177.59
2022-12-04T21:37:51.565Z,100177.91
2022-12-04T21:40:18.938Z,100175.50
2022-12-04T21:42:46.496Z,100177.44
2022-12-04T21:45:13.746Z,100184.41
2022-12-04T21:47:40.964Z,100188.69
2022-12-04T21:50:08.601Z,100196.50
2022-12-04T21:52:35.865Z,100204.53
2022-12-04T21:55:03.055Z,100200.81
2022-12-04T21:57:30.690Z,100202.69
2022-12-04T21:59:58.213Z,100198.75
2022-12-04T22:02:25.712Z,100200.59
2022-12-04T22:04:53.289Z,100197.59
2022-12-04T22:07:20.531Z,100198.38
2022-12-04T22:09:47.737Z,100194.06
2022-12-04T22:12:41.226Z,100207.84
2022-12-04T22:15:02.490Z,100204.00
2022-12-04T22:17:30.151Z,100195.28
2022-12-04T22:19:57.647Z,100203.06
2022-12-04T22:22:25.096Z,100199.25
2022-12-04T22:24:52.548Z,100192.38
2022-12-04T22:27:19.822Z,100199.66
2022-12-04T22:29:50.694Z,100191.69
2022-12-04T22:32:18.948Z,100184.31
2022-12-04T22:34:47.859Z,100182.84
2022-12-04T22:37:15.103Z,100178.66
2022-12-04T22:39:42.585Z,100182.84
2022-12-04T22:42:09.794Z,100183.69
2022-12-04T22:44:37.526Z,100174.28
2022-12-04T22:47:05.054Z,100187.34
2022-12-04T22:49:32.381Z,100178.28
2022-12-04T22:51:59.736Z,100181.09
2022-12-04T22:54:27.272Z,100184.25
2022-12-04T22:56:54.503Z,100174.56
2022-12-04T22:59:21.733Z,100180.53
2022-12-04T23:01:49.285Z,100175.72
2022-12-04T23:04:16.591Z,100167.84
2022-12-04T23:06:43.865Z,100172.94
2022-12-04T23:09:13.500Z,100165.31
2022-12-04T23:11:40.687Z,100168.50
2022-12-04T23:14:08.551Z,100179.53
2022-12-04T23:16:36.885Z,100178.28
2022-12-04T23:19:04.626Z,100182.09
2022-12-04T23:21:31.860Z,100173.84
2022-12-04T23:23:59.446Z,100171.72
2022-12-04T23:26:27.707Z,100170.66
2022-12-04T23:28:55.144Z,100175.72
2022-12-04T23:31:23.181Z,100175.47
2022-12-04T23:33:50.544Z,100171.06
2022-12-04T23:36:17.803Z,100178.22
2022-12-04T23:38:45.386Z,100175.63
2022-12-04T23:41:12.539Z,100175.00
2022-12-04T23:43:39.903Z,100175.06
2022-12-04T23:46:11.251Z,100174.59
2022-12-04T23:48:39.350Z,100171.81
2022-12-04T23:51:06.895Z,100181.91
2022-12-04T23:53:34.537Z,100179.44
2022-12-04T23:56:08.021Z,100179.13
2022-12-04T23:58:35.627Z,100171.75
